This is the latest recevied weather packets stored in our database for station/object MB7IWY-13. If no packets are shown the sender has not sent any weather packets the latest 10 day(s).
| Time | Temp. | Humidity | Pressure | Rain* | Wind** | Luminosity | Snow |
|---|---|---|---|---|---|---|---|
| 1777790701 | 10.56° C | 97% | 1030.8 hPa | 1.27 mm | - | 0 W/m² | - |
| 1777787101 | 10.56° C | 97% | 1029.8 hPa | 0 mm | - | 0 W/m² | - |
| 1777785481 | 10.56° C | 97% | 1029.8 hPa | 0 mm | - | 0 W/m² | - |
| 1777784041 | 10.56° C | 96% | 1029.8 hPa | 0 mm | - | 0 W/m² | - |
| 1777782442 | 10.56° C | 96% | 1029.8 hPa | 1.78 mm | - | 0 W/m² | - |
| 1777778821 | 10.56° C | 96% | 1030.8 hPa | 0.51 mm | - | 0 W/m² | - |
| 1777778281 | 10.56° C | 96% | 1030.8 hPa | 0.51 mm | - | 0 W/m² | - |
| 1777776302 | 10.56° C | 96% | 1030.8 hPa | 0.51 mm | - | 0 W/m² | - |
| 1777775762 | 10.56° C | 96% | 1030.8 hPa | 0.51 mm | - | 0 W/m² | - |
| 1777775243 | 10.56° C | 96% | 1031.8 hPa | 2.03 mm | - | 0 W/m² | - |
| 1777771622 | 10.56° C | 96% | 1031.8 hPa | 3.3 mm | - | 0 W/m² | - |
| 1777770542 | 10.56° C | 96% | 1031.8 hPa | 3.3 mm | - | 0 W/m² | - |
| 1777769642 | 10.56° C | 96% | 1031.8 hPa | 2.29 mm | - | 0 W/m² | - |
| 1777766402 | 11.11° C | 94% | 1031.8 hPa | 3.05 mm | - | 0 W/m² | - |
| 1777762802 | 11.11° C | 91% | 1032.8 hPa | 3.3 mm | - | 0 W/m² | - |
| 1777754162 | 13.33° C | 76% | 1033.8 hPa | 6.35 mm | - | 0 W/m² | - |
| 1777743902 | 15.56° C | 68% | 1033.8 hPa | 0 mm | - | 0 W/m² | - |
| 1777742282 | 16.11° C | 66% | 1033.8 hPa | 0 mm | - | 0 W/m² | - |
| 1777739222 | 17.22° C | 62% | 1034.9 hPa | 0 mm | - | 0 W/m² | - |
| 1777738682 | 17.22° C | 62% | 1034.9 hPa | 0 mm | - | 0 W/m² | - |
| 1777737602 | 16.67° C | 62% | 1034.9 hPa | 0 mm | - | 0 W/m² | - |
| 1777736702 | 16.67° C | 62% | 1034.9 hPa | 0 mm | - | 0 W/m² | - |
| 1777733642 | 16.67° C | 62% | 1034.9 hPa | 0 mm | - | 0 W/m² | - |
| 1777732022 | 16.11° C | 64% | 1035.9 hPa | 0 mm | - | 0 W/m² | - |
| 1777730063 | 15.56° C | 67% | 1035.9 hPa | 0 mm | - | 0 W/m² | - |
* Rain latest hour (hover to see other rain measurements)
** Current wind speed in m/s (hover to see current wind gust speed)